Time;durP1;ratioP1;P1;durP2;ratioP2;P2;SDS_P1;SDS_P2;PMS_P1;PMS_P2;Temp;Humidity;BMP_temperature;BMP_pressure;BME280_temperature;BME280_humidity;BME280_pressure;Samples;Min_cycle;Max_cycle;Signal;HPM_P1;HPM_P2
2022/09/19 06:16:32;;;;;;;6.03;1.67;;;;;;;;;;10692457;27;20035;-84
2022/09/19 06:21:33;;;;;;;5.95;1.77;;;;;;;;;;10682889;27;20034;-83
2022/09/19 06:26:34;;;;;;;;;;;;;;;;;;10693905;27;20031;-83
2022/09/19 06:31:35;;;;;;;;;;;;;;;;;;10694613;27;19966;-82
2022/09/19 06:36:37;;;;;;;6.35;1.60;;;;;;;;;;10677079;27;19918;-84
2022/09/19 06:41:40;;;;;;;8.63;1.67;;;;;;;;;;10661733;27;20018;-84
2022/09/19 06:46:41;;;;;;;7.22;1.88;;;;;;;;;;10662709;27;20076;-84
2022/09/19 06:51:48;;;;;;;;;;;;;;;;;;10665308;27;20066;-84
2022/09/19 06:56:50;;;;;;;5.72;1.80;;;;;;;;;;10661687;27;19922;-85
2022/09/19 07:01:53;;;;;;;4.07;1.30;;;;;;;;;;10657894;27;20022;-84
2022/09/19 07:07:31;;;;;;;3.15;1.00;;;;;;;;;;10642563;27;20471;-85
2022/09/19 07:18:21;;;;;;;4.25;1.55;;;;;;;;;;10643242;27;20109;-86
2022/09/19 07:23:40;;;;;;;4.03;1.73;;;;;;;;;;10621983;27;20042;-83
2022/09/19 07:28:48;;;;;;;3.67;1.58;;;;;;;;;;10646885;27;20389;-84
2022/09/19 07:34:08;;;;;;;5.22;1.60;;;;;;;;;;10624883;27;20041;-84
2022/09/19 07:39:14;;;;;;;8.20;2.20;;;;;;;;;;10622677;27;20117;-84
2022/09/19 07:44:16;;;;;;;8.18;2.47;;;;;;;;;;10632097;27;20031;-84
2022/09/19 07:49:17;;;;;;;7.28;2.22;;;;;;;;;;10626598;27;20094;-85
2022/09/19 07:54:18;;;;;;;6.85;2.03;;;;;;;;;;10625581;27;20050;-84
2022/09/19 07:59:45;;;;;;;6.13;1.55;;;;;;;;;;10623718;27;20043;-84
2022/09/19 08:05:05;;;;;;;9.05;2.63;;;;;;;;;;10515205;28;20036;-85
2022/09/19 08:10:07;;;;;;;8.25;3.22;;;;;;;;;;10486406;28;20027;-86
2022/09/19 08:21:16;;;;;;;11.18;3.63;;;;;;;;;;10501687;28;20024;-85
2022/09/19 08:26:18;;;;;;;5.88;2.60;;;;;;;;;;10554474;27;20038;-85
2022/09/19 08:31:20;;;;;;;10.88;4.25;;;;;;;;;;10635395;27;20023;-86
2022/09/19 08:36:21;;;;;;;9.90;3.92;;;;;;;;;;10624371;27;20027;-85
2022/09/19 08:41:45;;;;;;;10.55;3.55;;;;;;;;;;10615520;27;20076;-87
2022/09/19 09:04:09;;;;;;;4.57;2.60;;;;;;;;;;10460861;28;20041;-89
2022/09/19 09:09:54;;;;;;;7.70;3.45;;;;;;;;;;10336747;28;20050;-89
2022/09/19 09:15:20;;;;;;;6.68;2.47;;;;;;;;;;10337371;28;20042;-86
2022/09/19 09:21:04;;;;;;;6.20;2.03;;;;;;;;;;10349742;28;20025;-86
2022/09/19 09:26:45;;;;;;;6.65;2.35;;;;;;;;;;10563270;27;20130;-85
2022/09/19 09:32:05;;;;;;;;;;;;;;;;;;10607179;27;20035;-87
2022/09/19 09:37:26;;;;;;;8.75;2.13;;;;;;;;;;10629984;27;19931;-87
2022/09/19 09:48:44;;;;;;;9.43;3.88;;;;;;;;;;10459787;28;20029;-87
2022/09/19 10:10:47;;;;;;;7.07;2.35;;;;;;;;;;10498400;28;20072;-85
2022/09/19 10:15:54;;;;;;;6.10;2.00;;;;;;;;;;10507716;28;20121;-85
2022/09/19 10:20:56;;;;;;;6.20;1.80;;;;;;;;;;10618106;28;20057;-84
2022/09/19 10:26:03;;;;;;;7.28;2.45;;;;;;;;;;10609709;28;20034;-85
2022/09/19 10:31:06;;;;;;;3.85;1.73;;;;;;;;;;10640836;27;20091;-84
2022/09/19 10:36:16;;;;;;;4.85;2.38;;;;;;;;;;10615245;28;20027;-85
2022/09/19 10:41:20;;;;;;;6.38;2.00;;;;;;;;;;10612356;27;20079;-84
2022/09/19 10:46:22;;;;;;;6.03;1.70;;;;;;;;;;10641226;27;20023;-84
2022/09/19 10:51:43;;;;;;;7.03;3.25;;;;;;;;;;10623911;27;20027;-82
2022/09/19 10:56:45;;;;;;;4.93;1.85;;;;;;;;;;10632494;27;20501;-82
2022/09/19 11:02:07;;;;;;;7.47;4.07;;;;;;;;;;10624434;27;20023;-83
2022/09/19 11:07:16;;;;;;;5.18;2.00;;;;;;;;;;10611424;27;20073;-83
2022/09/19 11:12:18;;;;;;;4.35;1.92;;;;;;;;;;10648186;27;20015;-83
2022/09/19 11:17:37;;;;;;;7.75;3.92;;;;;;;;;;10630223;27;20039;-84
2022/09/19 11:22:37;;;;;;;5.85;2.17;;;;;;;;;;10629281;27;20080;-82
2022/09/19 11:27:38;;;;;;;4.28;1.40;;;;;;;;;;10626540;27;20027;-83
2022/09/19 11:32:49;;;;;;;6.22;1.80;;;;;;;;;;10627891;27;20038;-83
2022/09/19 11:38:09;;;;;;;5.53;1.65;;;;;;;;;;10625994;27;20023;-83
2022/09/19 11:43:30;;;;;;;6.78;1.50;;;;;;;;;;10642265;27;20035;-82
2022/09/19 11:48:40;;;;;;;5.03;1.95;;;;;;;;;;10632691;27;20130;-83
2022/09/19 11:53:42;;;;;;;;;;;;;;;;;;10646030;27;20027;-84
2022/09/19 11:58:51;;;;;;;5.35;1.80;;;;;;;;;;10624953;27;19947;-83
2022/09/19 12:04:13;;;;;;;4.93;1.75;;;;;;;;;;10620776;27;20023;-86
2022/09/19 12:09:17;;;;;;;3.67;1.10;;;;;;;;;;10601142;27;20043;-85
2022/09/19 12:14:27;;;;;;;3.75;1.38;;;;;;;;;;10628458;27;20023;-85
2022/09/19 12:19:35;;;;;;;4.72;1.27;;;;;;;;;;10630542;27;20042;-86
2022/09/19 12:24:55;;;;;;;4.15;1.00;;;;;;;;;;10647595;27;20030;-86
2022/09/19 12:35:53;;;;;;;4.30;1.10;;;;;;;;;;10647151;27;20023;-84
2022/09/19 12:41:12;;;;;;;2.47;0.88;;;;;;;;;;10629247;27;20023;-84
2022/09/19 12:46:34;;;;;;;4.80;1.08;;;;;;;;;;10646712;27;20030;-84
2022/09/19 12:51:50;;;;;;;2.13;0.77;;;;;;;;;;10631650;27;20016;-82
2022/09/19 12:56:59;;;;;;;2.28;0.90;;;;;;;;;;10627206;27;20057;-84
2022/09/19 13:02:09;;;;;;;4.13;1.05;;;;;;;;;;10609743;27;20072;-83
2022/09/19 13:53:01;;;;;;;3.25;1.00;;;;;;;;;;10647723;27;20016;-80
2022/09/19 13:58:33;;;;;;;3.08;1.08;;;;;;;;;;10553624;28;20024;-81
2022/09/19 14:10:07;;;;;;;4.65;1.60;;;;;;;;;;10393751;28;20265;-82
2022/09/19 15:29:13;;;;;;;;;;;;;;;;;;;;;
2022/09/19 15:34:46;;;;;;;3.67;1.13;;;;;;;;;;10481584;28;20029;-83
2022/09/19 15:40:24;;;;;;;4.22;2.33;;;;;;;;;;10462021;28;20530;-82
2022/09/19 16:14:13;;;;;;;3.90;2.10;;;;;;;;;;10605368;28;20020;-82
2022/09/19 16:19:35;;;;;;;3.70;1.88;;;;;;;;;;10594868;28;20047;-80
2022/09/19 16:25:14;;;;;;;5.35;1.75;;;;;;;;;;10489501;28;20116;-86
2022/09/19 18:36:27;;;;;;;2.42;1.30;;;;;;;;;;10350549;28;20541;-85
2022/09/19 18:41:50;;;;;;;3.28;1.10;;;;;;;;;;10347270;28;20502;-85
2022/09/19 19:03:43;;;;;;;1.60;1.00;;;;;;;;;;10396349;28;20033;-85
2022/09/19 19:09:26;;;;;;;3.20;1.07;;;;;;;;;;10354381;28;20069;-85
